Time;durP1;ratioP1;P1;durP2;ratioP2;P2;SDS_P1;SDS_P2;PMS_P1;PMS_P2;Temp;Humidity;BMP_temperature;BMP_pressure;BME280_temperature;BME280_humidity;BME280_pressure;Samples;Min_cycle;Max_cycle;Signal;HPM_P1;HPM_P2
2022/08/01 00:01:33;;;;;;;2.95;1.92;;;;;;;22.68;43.59;99024.84;4873182;29;20031;-93
2022/08/01 00:03:58;;;;;;;2.47;1.92;;;;;;;22.63;43.98;99023.16;4889013;29;20032;-94
2022/08/01 00:06:24;;;;;;;3.00;1.90;;;;;;;22.61;43.76;99017.25;4889455;29;20024;-94
2022/08/01 00:08:49;;;;;;;6.43;2.40;;;;;;;22.46;44.48;99007.91;4888552;29;20032;-93
2022/08/01 00:11:15;;;;;;;3.25;2.00;;;;;;;22.51;44.11;99024.06;4888573;29;20517;-93
2022/08/01 00:13:40;;;;;;;2.65;2.13;;;;;;;22.51;44.63;99026.81;4873718;29;20021;-94
2022/08/01 00:16:06;;;;;;;2.97;2.05;;;;;;;22.33;44.75;99020.94;4889159;29;20509;-93
2022/08/01 00:18:32;;;;;;;4.38;1.95;;;;;;;22.33;45.07;99018.19;4889352;29;20039;-95
2022/08/01 00:20:57;;;;;;;5.47;2.13;;;;;;;22.34;44.66;99006.03;4873365;29;20032;-92
2022/08/01 00:23:23;;;;;;;3.10;2.00;;;;;;;22.24;45.25;99014.03;4872435;29;20028;-92
2022/08/01 00:25:48;;;;;;;2.53;2.03;;;;;;;22.26;45.33;98995.28;4873721;29;20027;-94
2022/08/01 00:28:14;;;;;;;2.33;2.03;;;;;;;22.23;44.89;98988.56;4890148;29;20491;-94
2022/08/01 00:30:39;;;;;;;3.55;1.80;;;;;;;22.30;44.83;99005.16;4888978;29;20122;-94
2022/08/01 00:33:05;;;;;;;2.85;2.05;;;;;;;22.22;45.09;98984.19;4888994;29;20040;-96
2022/08/01 00:35:30;;;;;;;2.95;1.95;;;;;;;22.05;46.14;98976.34;4905020;29;20012;-95
2022/08/01 00:37:56;;;;;;;2.35;1.80;;;;;;;22.18;45.57;98994.28;4871577;29;20414;-94
2022/08/01 00:40:21;;;;;;;2.47;1.85;;;;;;;22.21;45.40;98985.34;4885206;29;20033;-93
2022/08/01 00:42:47;;;;;;;2.50;1.80;;;;;;;22.18;45.25;98991.53;4869642;29;20059;-93
2022/08/01 00:45:15;;;;;;;2.50;1.58;;;;;;;22.12;45.70;98987.47;4885719;29;20095;-93
2022/08/01 00:47:40;;;;;;;3.35;1.95;;;;;;;21.95;46.00;98972.19;4884797;29;20025;-94
2022/08/01 00:50:06;;;;;;;2.55;1.77;;;;;;;22.00;46.36;98986.41;4900023;29;20392;-93
2022/08/01 00:52:32;;;;;;;2.78;1.80;;;;;;;21.81;46.57;98978.13;4900427;29;20043;-94
2022/08/01 00:54:58;;;;;;;2.33;1.92;;;;;;;21.79;47.17;98974.94;4900192;29;20029;-94
2022/08/01 00:57:23;;;;;;;3.75;1.77;;;;;;;21.86;47.01;98982.53;4883887;29;20036;-93
2022/08/01 00:59:50;;;;;;;3.72;1.63;;;;;;;21.82;46.35;98974.22;4900668;29;20044;-94
2022/08/01 01:02:17;;;;;;;8.27;2.28;;;;;;;21.82;46.30;98973.44;4885290;29;20037;-93
2022/08/01 01:04:43;;;;;;;2.63;1.48;;;;;;;21.91;46.09;98977.56;4900527;29;20036;-94
2022/08/01 01:07:34;;;;;;;4.60;1.83;;;;;;;21.99;46.58;99001.25;4868854;29;20465;-93
2022/08/01 01:10:05;;;;;;;2.45;1.70;;;;;;;21.89;46.51;98981.81;4884742;29;20032;-93
2022/08/01 01:12:37;;;;;;;3.45;2.22;;;;;;;21.77;46.82;98967.06;4885203;29;20040;-93
2022/08/01 01:15:06;;;;;;;2.50;2.17;;;;;;;21.67;47.55;98966.78;4870343;29;20052;-93
2022/08/01 01:17:38;;;;;;;2.30;1.92;;;;;;;21.74;47.44;98981.44;4869509;29;20044;-93
2022/08/01 01:20:04;;;;;;;;;;;;;;;21.69;47.71;98992.69;4885514;29;20092;-94
2022/08/01 01:22:48;;;;;;;2.95;2.10;;;;;;;21.60;47.65;98992.03;4915824;29;19911;-94
2022/08/01 01:25:33;;;;;;;3.33;2.28;;;;;;;21.53;47.97;98975.44;4916521;29;20052;-94
2022/08/01 01:28:02;;;;;;;3.22;2.10;;;;;;;21.61;47.92;98984.63;4869562;29;20059;-94
2022/08/01 01:30:30;;;;;;;2.85;1.90;;;;;;;21.31;48.09;98963.06;4917157;29;20046;-94
2022/08/01 01:32:55;;;;;;;3.55;2.05;;;;;;;21.28;48.96;98961.84;4900692;29;20032;-94
2022/08/01 01:35:23;;;;;;;2.85;1.75;;;;;;;21.22;48.95;98948.75;4899157;29;20044;-92
2022/08/01 01:37:49;;;;;;;5.43;1.80;;;;;;;21.18;49.04;98954.91;4896189;29;20112;-92
2022/08/01 01:40:15;;;;;;;4.68;2.25;;;;;;;21.16;49.25;98959.16;4852984;29;20024;-92
2022/08/01 01:42:41;;;;;;;3.85;1.90;;;;;;;21.25;48.85;98957.06;4868090;29;20028;-93
2022/08/01 01:45:07;;;;;;;4.28;2.00;;;;;;;21.12;49.06;98947.31;4867711;29;20033;-94
2022/08/01 01:47:32;;;;;;;2.70;2.08;;;;;;;21.11;49.27;98946.53;4852860;29;20036;-93
2022/08/01 01:49:58;;;;;;;3.05;2.00;;;;;;;21.30;49.19;98975.19;4852783;29;20032;-93
2022/08/01 01:52:24;;;;;;;4.15;2.13;;;;;;;21.18;49.43;98965.88;4868649;29;20071;-92
2022/08/01 01:54:50;;;;;;;4.82;2.38;;;;;;;21.16;50.05;98959.94;4867601;29;20120;-93
2022/08/01 01:57:16;;;;;;;3.75;2.53;;;;;;;20.86;50.35;98943.09;4852774;29;20067;-92
2022/08/01 01:59:41;;;;;;;3.63;2.35;;;;;;;20.94;50.91;98966.00;4883401;29;20107;-92
2022/08/01 02:02:07;;;;;;;4.03;2.47;;;;;;;20.85;50.38;98957.09;4868300;29;20116;-93
2022/08/01 02:04:35;;;;;;;3.55;2.45;;;;;;;20.78;49.86;98954.97;4867208;29;20083;-93
2022/08/01 02:07:01;;;;;;;4.40;2.63;;;;;;;20.75;50.40;98970.16;4867756;29;20471;-93
2022/08/01 02:09:26;;;;;;;3.55;2.60;;;;;;;20.71;50.31;98961.03;4868008;29;20036;-93
2022/08/01 02:11:52;;;;;;;3.47;2.53;;;;;;;20.83;51.21;98978.56;4868014;29;20172;-93
2022/08/01 02:14:18;;;;;;;4.97;2.90;;;;;;;20.69;51.59;98970.72;4868017;29;20037;-94
2022/08/01 02:16:49;;;;;;;4.03;2.33;;;;;;;20.54;52.09;98964.00;4869094;29;20040;-92
2022/08/01 02:19:16;;;;;;;4.10;2.60;;;;;;;20.55;51.86;98968.34;4869571;29;20468;-92
2022/08/01 02:22:04;;;;;;;3.92;2.20;;;;;;;20.53;51.68;98954.22;4883487;29;20033;-91
2022/08/01 02:24:40;;;;;;;3.63;2.17;;;;;;;20.53;51.66;98946.00;4868351;29;20032;-93
2022/08/01 02:27:09;;;;;;;3.50;2.30;;;;;;;20.49;51.34;98939.63;4867383;29;20033;-93
2022/08/01 02:29:41;;;;;;;5.20;2.10;;;;;;;20.53;51.99;98967.88;4852393;29;20040;-92
2022/08/01 02:32:06;;;;;;;;;;;;;;;20.62;51.33;98965.03;4868504;29;20039;-94
2022/08/01 02:34:33;;;;;;;3.33;1.95;;;;;;;20.36;51.59;98958.00;4899712;29;20284;-93
2022/08/01 02:37:00;;;;;;;3.80;2.42;;;;;;;20.38;51.64;98958.47;4867659;29;20048;-93
2022/08/01 02:39:25;;;;;;;3.13;2.20;;;;;;;20.27;51.92;98949.09;4899791;29;20116;-93
2022/08/01 02:41:53;;;;;;;3.90;2.33;;;;;;;20.28;51.41;98948.78;4899037;29;20056;-93
2022/08/01 02:44:27;;;;;;;3.38;2.20;;;;;;;20.26;51.06;98942.84;4899480;29;20055;-93
2022/08/01 02:47:02;;;;;;;3.30;2.17;;;;;;;20.35;50.78;98951.72;4901097;29;20128;-94
2022/08/01 02:49:48;;;;;;;3.85;2.33;;;;;;;20.33;51.01;98953.22;4901903;29;20040;-93
2022/08/01 02:52:15;;;;;;;4.82;2.30;;;;;;;20.26;51.10;98940.13;4899331;29;20056;-92
2022/08/01 02:54:41;;;;;;;3.13;2.53;;;;;;;20.41;51.23;98951.50;4902570;29;20047;-92
2022/08/01 02:57:08;;;;;;;2.40;2.10;;;;;;;20.29;50.76;98917.53;4901932;29;20029;-93
2022/08/01 02:59:34;;;;;;;3.22;2.25;;;;;;;20.43;50.79;98938.28;4902271;29;20028;-93
2022/08/01 03:01:59;;;;;;;3.00;1.98;;;;;;;20.44;50.54;98937.94;4917536;29;20063;-94
2022/08/01 03:04:25;;;;;;;3.67;2.13;;;;;;;20.37;50.25;98927.56;4887026;29;20116;-93
2022/08/01 03:06:58;;;;;;;3.60;2.15;;;;;;;20.36;50.76;98944.34;4887600;29;20097;-93
2022/08/01 03:09:25;;;;;;;4.07;2.35;;;;;;;20.44;50.62;98934.38;4903055;29;20115;-93
2022/08/01 03:11:50;;;;;;;3.33;2.30;;;;;;;20.42;50.58;98931.19;4902772;29;20036;-93
2022/08/01 03:14:16;;;;;;;2.60;1.90;;;;;;;20.37;50.02;98922.09;4887840;29;20040;-94
2022/08/01 03:16:42;;;;;;;2.60;1.83;;;;;;;20.38;49.67;98920.97;4886768;29;20032;-93
2022/08/01 03:19:09;;;;;;;2.40;1.77;;;;;;;20.41;49.45;98924.16;4902828;29;20123;-96
2022/08/01 03:21:35;;;;;;;3.88;2.00;;;;;;;20.52;49.33;98938.94;4902090;29;20060;-95
2022/08/01 03:24:01;;;;;;;4.43;1.92;;;;;;;20.52;49.34;98937.00;4886518;29;20032;-94
2022/08/01 03:26:27;;;;;;;3.78;1.85;;;;;;;20.44;49.48;98921.53;4902590;29;20056;-93
2022/08/01 03:28:55;;;;;;;3.20;1.88;;;;;;;20.38;49.49;98922.91;4901445;29;20036;-94
2022/08/01 03:31:20;;;;;;;4.35;1.80;;;;;;;20.54;48.89;98939.38;4902170;29;20044;-95
2022/08/01 03:33:46;;;;;;;2.55;1.70;;;;;;;20.46;48.81;98923.91;4903993;29;20480;-95
2022/08/01 03:36:11;;;;;;;2.35;1.80;;;;;;;20.56;49.37;98924.22;5028443;23;20051;-93
2022/08/01 03:38:38;;;;;;;4.63;2.35;;;;;;;20.47;48.71;98918.09;4892109;29;20036;-93
2022/08/01 03:41:09;;;;;;;2.65;1.80;;;;;;;20.50;48.67;98914.69;4892288;29;20451;-92
2022/08/01 03:43:41;;;;;;;2.47;1.90;;;;;;;20.45;49.77;98911.38;4893242;29;20413;-95
2022/08/01 03:46:07;;;;;;;;;;;;;;;20.65;49.50;98936.97;4911885;29;20024;-96
2022/08/01 03:48:36;;;;;;;7.03;3.30;;;;;;;20.52;49.87;98917.88;4909349;29;19969;-95
2022/08/01 03:51:02;;;;;;;9.70;5.47;;;;;;;20.58;50.41;98929.38;4909264;29;20020;-96
2022/08/01 03:53:29;;;;;;;6.57;3.80;;;;;;;20.35;52.65;98910.69;4909315;29;20036;-95
2022/08/01 03:55:55;;;;;;;3.08;2.58;;;;;;;20.38;52.07;98903.75;4893619;29;20031;-95
2022/08/01 03:58:21;;;;;;;5.10;2.38;;;;;;;20.29;52.77;98908.56;4908615;29;20023;-95
2022/08/01 04:00:46;;;;;;;8.13;2.70;;;;;;;20.23;53.18;98905.25;4893416;29;20050;-95
2022/08/01 04:03:12;;;;;;;3.65;2.40;;;;;;;20.32;51.98;98916.09;4909035;29;20608;-95
2022/08/01 04:05:41;;;;;;;4.00;2.45;;;;;;;20.30;50.49;98919.16;4893116;29;20028;-96
2022/08/01 04:08:06;;;;;;;5.05;2.90;;;;;;;20.21;51.12;98901.28;4892522;29;20071;-95
2022/08/01 04:10:32;;;;;;;12.45;4.47;;;;;;;20.48;51.60;98919.69;4910392;29;20027;-94
2022/08/01 04:12:57;;;;;;;7.45;2.83;;;;;;;20.60;50.22;98916.13;4909186;29;20474;-96
2022/08/01 04:15:23;;;;;;;6.82;2.80;;;;;;;20.86;51.74;98934.88;4895032;29;20032;-96
2022/08/01 04:17:49;;;;;;;4.75;2.80;;;;;;;20.85;51.06;98925.06;4892666;29;20023;-95
2022/08/01 04:20:15;;;;;;;7.78;3.20;;;;;;;20.74;52.12;98907.56;4892757;29;20043;-94
2022/08/01 04:22:41;;;;;;;25.20;4.10;;;;;;;20.95;51.84;98904.63;4893253;29;20390;-93
2022/08/01 04:25:15;;;;;;;6.72;3.30;;;;;;;21.05;50.68;98909.59;4908529;29;20066;-92
2022/08/01 04:27:49;;;;;;;4.57;2.92;;;;;;;21.07;49.51;98906.50;4893514;29;20055;-93
2022/08/01 04:30:36;;;;;;;4.93;2.25;;;;;;;21.27;47.09;98905.50;4893716;29;20027;-92
2022/08/01 04:33:02;;;;;;;5.55;3.10;;;;;;;21.30;47.63;98896.56;4927354;29;20019;-93
2022/08/01 04:35:27;;;;;;;4.80;2.90;;;;;;;21.44;46.96;98904.38;4927628;28;20031;-91
2022/08/01 04:37:53;;;;;;;4.53;2.67;;;;;;;21.56;46.86;98909.78;4946163;29;20023;-91
2022/08/01 04:40:22;;;;;;;5.35;2.33;;;;;;;21.70;43.84;98897.56;4922917;29;20027;-95
2022/08/01 04:42:52;;;;;;;3.33;2.08;;;;;;;21.85;43.24;98885.81;4908734;29;20115;-94
2022/08/01 04:45:39;;;;;;;2.58;1.88;;;;;;;22.19;42.29;98906.16;4939753;29;20102;-94
2022/08/01 04:48:08;;;;;;;3.83;2.47;;;;;;;22.24;43.03;98907.06;4910485;29;20505;-95
2022/08/01 04:50:41;;;;;;;4.18;1.63;;;;;;;22.33;40.40;98908.47;4926813;29;20024;-94
2022/08/01 04:53:16;;;;;;;5.40;3.65;;;;;;;22.50;39.89;98903.72;4926155;29;20095;-94
2022/08/01 04:56:12;;;;;;;4.88;2.88;;;;;;;22.68;39.73;98901.34;4909905;29;20106;-92
2022/08/01 04:58:40;;;;;;;2.90;1.75;;;;;;;22.96;38.10;98912.09;4871244;29;20068;-95
2022/08/01 05:01:10;;;;;;;4.50;1.70;;;;;;;22.84;37.74;98907.53;4871230;29;20132;-95
2022/08/01 05:03:37;;;;;;;9.20;3.05;;;;;;;23.06;38.17;98905.25;4869911;29;20464;-96
2022/08/01 05:06:07;;;;;;;2.72;1.58;;;;;;;23.07;38.32;98924.09;4870357;29;20203;-95
2022/08/01 05:08:33;;;;;;;2.20;1.30;;;;;;;23.00;37.84;98888.25;4885613;29;20039;-95
2022/08/01 05:10:58;;;;;;;6.93;4.70;;;;;;;23.01;37.10;98900.84;4888084;29;20029;-94
2022/08/01 05:13:24;;;;;;;2.78;1.70;;;;;;;23.13;37.48;98897.13;4886837;29;20044;-96
2022/08/01 05:15:52;;;;;;;4.70;1.98;;;;;;;23.07;38.00;98899.38;4873442;29;20020;-96
2022/08/01 05:18:17;;;;;;;7.07;2.88;;;;;;;23.24;37.84;98887.13;4872883;29;20033;-94
2022/08/01 05:20:43;;;;;;;5.88;2.92;;;;;;;23.42;36.91;98906.69;4868943;29;20029;-96
2022/08/01 05:23:09;;;;;;;4.28;2.45;;;;;;;23.43;36.64;98897.28;4869031;29;20035;-93
2022/08/01 05:25:34;;;;;;;78.18;70.72;;;;;;;23.43;38.35;98893.72;4868566;29;20115;-94
2022/08/01 05:28:05;;;;;;;7.50;4.57;;;;;;;23.51;36.99;98892.69;4867815;29;20025;-93
2022/08/01 05:30:34;;;;;;;2.85;2.33;;;;;;;23.62;36.53;98910.19;4934925;29;20410;-91
2022/08/01 05:32:59;;;;;;;2.50;1.90;;;;;;;23.50;37.05;98889.16;4888910;29;20027;-92
2022/08/01 05:35:25;;;;;;;4.68;1.88;;;;;;;23.68;36.39;98905.97;4920713;29;20035;-92
2022/08/01 05:37:50;;;;;;;3.30;1.67;;;;;;;23.70;36.69;98887.13;4886349;29;20047;-91
2022/08/01 05:40:16;;;;;;;6.95;2.08;;;;;;;23.74;36.28;98882.50;4886381;29;20487;-92
2022/08/01 05:42:41;;;;;;;2.35;1.65;;;;;;;23.95;35.71;98900.53;4886638;29;20024;-91
2022/08/01 05:45:07;;;;;;;2.38;1.38;;;;;;;23.87;34.83;98883.09;4871651;29;20095;-93
2022/08/01 05:47:33;;;;;;;2.90;1.30;;;;;;;23.96;35.23;98889.13;4915421;29;20059;-93
2022/08/01 05:49:58;;;;;;;1.65;1.20;;;;;;;24.07;33.45;98896.75;4923771;29;20034;-92
2022/08/01 05:52:28;;;;;;;3.17;1.00;;;;;;;24.18;33.04;98909.50;4925161;29;20027;-93
2022/08/01 05:54:53;;;;;;;1.70;1.20;;;;;;;24.08;32.18;98898.34;4907651;29;20031;-92
2022/08/01 05:57:19;;;;;;;1.35;1.23;;;;;;;24.18;32.28;98933.47;4917815;29;20414;-94
2022/08/01 05:59:44;;;;;;;4.20;1.27;;;;;;;24.02;32.18;98889.59;4934886;29;20024;-93
2022/08/01 06:02:49;;;;;;;;;;;;;;;;;;;;;
2022/08/01 06:05:49;;;;;;;;;;;;;;;;;;;;;
2022/08/01 06:08:40;;;;;;;2.10;0.90;;;;;;;24.07;32.54;98881.03;4927419;29;20026;-93
2022/08/01 06:11:06;;;;;;;1.42;1.10;;;;;;;24.27;32.39;98897.44;4945530;29;20040;-92
2022/08/01 06:13:31;;;;;;;1.42;0.93;;;;;;;24.36;32.32;98904.25;4920381;29;20549;-94
2022/08/01 06:15:57;;;;;;;1.90;1.42;;;;;;;24.46;33.54;98897.28;4904973;29;20027;-91
2022/08/01 06:18:25;;;;;;;1.23;0.90;;;;;;;24.52;32.14;98909.59;4923356;29;20051;-93
2022/08/01 06:20:51;;;;;;;2.17;1.23;;;;;;;24.49;31.80;98890.25;4904665;29;20106;-92
2022/08/01 06:23:16;;;;;;;1.60;1.10;;;;;;;24.52;31.88;98895.81;4918174;29;20035;-93
2022/08/01 06:25:44;;;;;;;1.40;0.93;;;;;;;24.62;32.90;98905.38;4918484;29;20031;-94
2022/08/01 06:28:10;;;;;;;1.20;1.00;;;;;;;24.54;32.16;98893.50;4917066;29;20028;-94
2022/08/01 06:30:36;;;;;;;3.30;1.00;;;;;;;24.56;31.90;98901.38;4902208;29;20503;-93
2022/08/01 06:33:02;;;;;;;2.20;0.88;;;;;;;24.65;32.40;98907.38;4885594;29;20028;-94
2022/08/01 06:35:29;;;;;;;1.77;1.35;;;;;;;24.60;32.16;98896.72;4910367;29;20481;-93
2022/08/01 06:38:17;;;;;;;1.48;0.93;;;;;;;24.66;31.74;98875.94;4912001;29;20091;-95
2022/08/01 06:40:42;;;;;;;5.82;3.83;;;;;;;24.78;32.30;98886.72;4926442;29;20039;-94
2022/08/01 06:43:07;;;;;;;4.07;1.90;;;;;;;24.73;31.72;98880.72;4927340;29;20167;-93
2022/08/01 06:49:54;;;;;;;1.35;0.98;;;;;;;25.11;31.43;98889.78;4839064;29;20110;-94
2022/08/01 07:09:40;;;;;;;0.93;0.80;;;;;;;25.27;31.66;98884.88;4790407;30;20114;-95
2022/08/01 07:12:30;;;;;;;1.90;0.90;;;;;;;25.05;31.92;98869.28;4798115;30;20269;-96
2022/08/01 07:14:57;;;;;;;1.02;0.70;;;;;;;25.18;31.48;98878.88;4800426;30;20039;-94
2022/08/01 07:17:26;;;;;;;1.48;0.77;;;;;;;25.16;31.23;98862.69;4802814;29;20058;-91
2022/08/01 07:19:54;;;;;;;1.50;1.02;;;;;;;25.28;31.39;98877.41;4885922;29;20434;-94
2022/08/01 07:22:20;;;;;;;5.15;3.25;;;;;;;25.22;32.00;98859.66;4867566;29;20040;-91
2022/08/01 07:24:48;;;;;;;1.55;1.00;;;;;;;25.38;31.02;98887.72;4882431;29;20074;-93
2022/08/01 07:27:16;;;;;;;2.15;1.15;;;;;;;25.45;31.40;98885.03;4897928;29;20028;-94
2022/08/01 07:29:45;;;;;;;2.40;0.82;;;;;;;25.48;31.32;98877.97;4912927;29;20103;-93
2022/08/01 07:32:10;;;;;;;1.45;1.00;;;;;;;25.43;31.09;98892.13;4907419;29;20083;-93
2022/08/01 07:34:36;;;;;;;2.67;0.80;;;;;;;25.36;31.10;98885.38;4923734;29;20027;-94
2022/08/01 07:37:10;;;;;;;2.60;0.90;;;;;;;25.40;31.92;98890.91;4939082;29;20051;-93
2022/08/01 07:40:10;;;;;;;1.73;1.00;;;;;;;25.29;31.23;98863.25;4923534;29;20039;-90
2022/08/01 07:42:36;;;;;;;4.50;1.52;;;;;;;25.38;31.49;98874.75;4903856;29;20050;-92
2022/08/01 07:45:03;;;;;;;1.10;0.88;;;;;;;25.49;31.61;98888.63;4890023;29;20039;-92
2022/08/01 07:47:29;;;;;;;3.90;1.52;;;;;;;25.56;30.75;98893.41;4906570;29;20028;-90
2022/08/01 07:50:07;;;;;;;1.40;0.95;;;;;;;25.52;31.47;98882.34;4908096;29;20470;-94
2022/08/01 07:52:43;;;;;;;2.75;0.98;;;;;;;25.72;31.73;98879.34;4926262;29;20043;-96
2022/08/01 07:55:12;;;;;;;2.45;1.10;;;;;;;25.72;31.14;98882.13;4896918;29;20067;-94
2022/08/01 07:57:37;;;;;;;3.08;1.23;;;;;;;25.79;30.70;98882.97;4909276;29;20442;-93
2022/08/01 08:00:07;;;;;;;3.65;1.45;;;;;;;25.87;30.76;98897.59;4908794;29;20034;-95
2022/08/01 08:02:35;;;;;;;5.50;2.85;;;;;;;25.90;31.55;98876.75;4891743;29;20043;-91
2022/08/01 08:05:01;;;;;;;5.05;1.80;;;;;;;26.10;31.21;98880.81;4922200;29;20031;-89
2022/08/01 08:07:27;;;;;;;5.28;1.23;;;;;;;26.28;30.67;98896.72;4907641;29;20055;-93
2022/08/01 08:10:05;;;;;;;3.65;2.20;;;;;;;26.30;30.73;98884.09;4909493;29;20019;-95
2022/08/01 08:12:31;;;;;;;2.15;1.50;;;;;;;26.30;30.80;98878.56;4908310;29;20023;-94
2022/08/01 08:15:05;;;;;;;3.92;1.50;;;;;;;26.40;30.02;98885.34;4923668;29;20028;-93
2022/08/01 08:17:35;;;;;;;4.50;1.30;;;;;;;26.27;30.08;98870.28;4927709;29;20040;-95
2022/08/01 08:20:28;;;;;;;3.08;1.60;;;;;;;26.33;30.82;98861.22;4912058;29;20099;-94
2022/08/01 08:25:53;;;;;;;3.35;1.58;;;;;;;26.41;30.27;98911.75;4926970;29;20096;-94
2022/08/01 08:28:25;;;;;;;2.10;1.40;;;;;;;26.41;29.82;98882.16;4924862;29;20455;-95
2022/08/01 08:30:59;;;;;;;8.07;1.30;;;;;;;26.40;30.06;98874.28;4915427;29;20392;-94
2022/08/01 08:33:25;;;;;;;1.20;0.90;;;;;;;26.44;29.98;98872.34;4912535;29;20016;-94
2022/08/01 08:35:50;;;;;;;2.28;1.25;;;;;;;26.34;29.85;98865.59;4887551;29;20048;-94
2022/08/01 08:38:18;;;;;;;2.88;0.90;;;;;;;26.30;30.11;98873.06;4874379;29;20111;-93
2022/08/01 08:41:31;;;;;;;1.95;1.13;;;;;;;26.27;30.71;98873.81;4920799;29;20068;-96
2022/08/01 08:44:12;;;;;;;7.80;4.00;;;;;;;26.51;31.09;98874.34;4887589;29;20046;-95
2022/08/01 08:46:45;;;;;;;1.70;1.00;;;;;;;26.45;30.30;98881.41;4888307;29;20123;-95
2022/08/01 08:49:36;;;;;;;1.02;0.80;;;;;;;26.63;30.06;98889.81;4905339;29;20058;-94
2022/08/01 08:52:14;;;;;;;5.00;1.20;;;;;;;26.61;30.53;98879.94;4885785;29;20037;-95
2022/08/01 09:01:46;;;;;;;1.63;1.00;;;;;;;26.42;30.63;98881.00;4904505;29;20092;-94
2022/08/01 09:04:15;;;;;;;1.40;1.10;;;;;;;26.51;30.49;98885.38;4880975;29;20040;-94
2022/08/01 09:06:57;;;;;;;0.88;0.77;;;;;;;26.63;30.70;98895.34;4879051;29;20040;-93
2022/08/01 09:10:25;;;;;;;;;;;;;;;;;;;;;
2022/08/01 09:27:06;;;;;;;2.60;0.95;;;;;;;26.87;29.81;98889.06;4920638;29;20115;-94
2022/08/01 09:30:13;;;;;;;2.92;0.73;;;;;;;26.62;30.55;98844.81;4946251;29;20043;-93
2022/08/01 09:33:24;;;;;;;1.58;0.70;;;;;;;26.88;29.95;98887.91;4941394;29;20032;-94
2022/08/01 09:38:41;;;;;;;1.42;0.68;;;;;;;26.90;29.86;98868.19;4938750;29;20039;-94
2022/08/01 09:41:07;;;;;;;1.63;0.73;;;;;;;26.91;29.63;98861.47;4931368;29;20131;-95
2022/08/01 09:43:36;;;;;;;1.40;0.80;;;;;;;27.00;29.54;98873.75;4938338;29;20127;-94
2022/08/01 09:46:28;;;;;;;1.50;0.95;;;;;;;27.07;29.75;98886.78;4915859;29;20030;-93
2022/08/01 09:49:00;;;;;;;1.45;0.90;;;;;;;27.10;29.87;98877.72;4940489;29;20039;-94
2022/08/01 09:51:36;;;;;;;2.15;0.98;;;;;;;27.05;30.11;98880.84;4927443;29;20031;-93
2022/08/01 09:54:08;;;;;;;2.60;0.90;;;;;;;26.95;30.22;98856.75;4910090;29;20019;-92
2022/08/01 09:56:38;;;;;;;0.80;0.70;;;;;;;27.17;30.07;98876.94;4907442;29;20498;-93
2022/08/01 09:59:03;;;;;;;1.77;0.93;;;;;;;27.15;29.93;98895.88;4910367;29;20027;-91
2022/08/01 10:01:43;;;;;;;1.58;1.00;;;;;;;27.05;30.11;98867.03;4891137;29;20426;-93
2022/08/01 10:04:16;;;;;;;1.20;0.70;;;;;;;27.39;29.60;98877.75;4902018;29;20059;-94
2022/08/01 10:06:49;;;;;;;1.02;0.80;;;;;;;27.19;29.74;98852.44;4930028;29;20031;-96
2022/08/01 10:09:15;;;;;;;0.75;0.60;;;;;;;27.42;29.43;98877.75;4910137;29;20055;-93
2022/08/01 10:11:49;;;;;;;0.70;0.45;;;;;;;27.20;29.19;98865.84;4924027;29;20054;-92
2022/08/01 10:14:15;;;;;;;0.60;0.50;;;;;;;27.35;29.09;98874.19;4936060;29;20711;-93
2022/08/01 10:16:43;;;;;;;1.33;0.68;;;;;;;27.50;29.33;98881.34;4919939;29;20023;-94
2022/08/01 10:28:25;;;;;;;0.50;0.45;;;;;;;27.73;28.52;98852.47;4915677;29;20219;-92
2022/08/01 10:31:00;;;;;;;1.55;0.80;;;;;;;27.84;28.92;98860.75;4908778;29;20044;-94
2022/08/01 10:34:04;;;;;;;0.43;0.43;;;;;;;27.88;28.34;98839.44;4917530;29;20063;-96
2022/08/01 10:36:40;;;;;;;0.55;0.50;;;;;;;27.98;27.73;98869.06;4903176;29;20112;-94
2022/08/01 10:39:06;;;;;;;1.90;1.02;;;;;;;28.05;27.84;98868.25;4908950;29;20036;-94
2022/08/01 10:41:33;;;;;;;0.50;0.50;;;;;;;27.95;28.08;98847.72;4877963;29;20505;-95
2022/08/01 10:44:13;;;;;;;;;;;;;;;;;;;;;
2022/08/01 10:46:42;;;;;;;2.08;0.73;;;;;;;27.95;28.15;98856.84;4904492;29;20127;-95
2022/08/01 10:49:28;;;;;;;;;;;;;;;;;;;;;
2022/08/01 10:51:57;;;;;;;0.85;0.60;;;;;;;27.98;28.19;98847.72;4910918;29;20119;-96
2022/08/01 10:54:26;;;;;;;0.60;0.40;;;;;;;28.10;28.45;98870.63;4908972;29;20063;-93
2022/08/01 10:57:20;;;;;;;0.73;0.60;;;;;;;28.21;28.08;98888.78;4889405;29;20024;-95
2022/08/01 10:59:54;;;;;;;0.47;0.43;;;;;;;28.05;28.22;98843.34;4906753;29;20056;-95
2022/08/01 11:02:33;;;;;;;0.82;0.60;;;;;;;28.29;28.41;98858.31;4894358;29;20035;-94
2022/08/01 11:05:22;;;;;;;3.38;0.80;;;;;;;28.34;29.00;98849.59;4904724;29;20043;-95
2022/08/01 11:07:55;;;;;;;2.35;1.58;;;;;;;28.33;28.17;98828.63;4915218;29;20017;-93
2022/08/01 11:11:13;;;;;;;1.10;0.68;;;;;;;28.48;28.10;98849.53;4916363;29;20024;-96
2022/08/01 11:13:58;;;;;;;1.70;0.88;;;;;;;28.56;28.73;98875.25;4900472;29;20043;-92
2022/08/01 11:17:13;;;;;;;0.75;0.50;;;;;;;28.48;27.60;98849.53;4914755;29;20088;-95
2022/08/01 11:20:21;;;;;;;0.60;0.40;;;;;;;28.64;27.65;98867.69;4910905;29;20117;-95
2022/08/01 11:22:58;;;;;;;1.58;1.20;;;;;;;28.75;27.43;98866.44;4893700;29;20035;-94
2022/08/01 11:25:35;;;;;;;0.88;0.68;;;;;;;28.76;27.77;98859.72;4923077;29;20060;-95
2022/08/01 11:28:16;;;;;;;1.85;1.48;;;;;;;28.84;27.50;98859.69;4911024;29;20075;-96
2022/08/01 11:31:02;;;;;;;0.90;0.60;;;;;;;28.68;27.77;98858.19;4931550;29;20036;-95
2022/08/01 11:33:47;;;;;;;0.63;0.55;;;;;;;28.37;27.79;98866.19;4906007;29;20036;-94
2022/08/01 11:36:16;;;;;;;1.15;0.70;;;;;;;28.36;28.18;98842.44;4910406;29;20531;-95
2022/08/01 11:42:27;;;;;;;1.02;0.60;;;;;;;28.57;27.86;98849.13;4893047;29;20147;-95
2022/08/01 11:45:00;;;;;;;7.68;0.75;;;;;;;28.50;27.76;98838.09;4906011;29;20020;-93
2022/08/01 11:47:55;;;;;;;0.70;0.60;;;;;;;28.58;27.88;98823.03;4890637;29;20028;-95
2022/08/01 11:50:31;;;;;;;0.93;0.63;;;;;;;28.65;27.71;98836.81;4908449;29;20074;-92
2022/08/01 11:54:05;;;;;;;;;;;;;;;;;;;;;
2022/08/01 11:56:34;;;;;;;1.58;0.68;;;;;;;28.51;28.08;98815.50;4882890;29;20100;-95
2022/08/01 11:59:08;;;;;;;0.68;0.57;;;;;;;28.82;27.50;98824.06;4912689;29;20066;-95
2022/08/01 12:02:14;;;;;;;;;;;;;;;;;;;;;
2022/08/01 12:08:25;;;;;;;1.40;0.60;;;;;;;28.96;27.67;98809.31;4857564;29;20626;-96
2022/08/01 12:11:16;;;;;;;0.65;0.65;;;;;;;28.95;27.22;98796.66;4855785;29;20416;-96
2022/08/01 12:13:43;;;;;;;0.63;0.60;;;;;;;29.09;27.78;98826.25;4905257;29;20040;-94
2022/08/01 12:16:48;;;;;;;;;;;;;;;;;;;;;
2022/08/01 12:23:13;;;;;;;;;;;;;;;;;;;;;
2022/08/01 12:26:00;;;;;;;;;;;;;;;29.34;28.07;98817.78;4915710;29;20420;-95
2022/08/01 12:28:38;;;;;;;0.88;0.70;;;;;;;29.31;28.16;98801.97;4908139;29;20464;-95
2022/08/01 12:31:04;;;;;;;1.90;1.20;;;;;;;29.34;28.28;98801.13;4908578;29;20035;-93
2022/08/01 12:33:32;;;;;;;2.60;1.40;;;;;;;29.48;29.00;98791.91;4890996;29;20031;-92
2022/08/01 12:36:07;;;;;;;1.48;1.02;;;;;;;29.61;28.31;98798.50;4903700;29;20056;-92
2022/08/01 12:38:51;;;;;;;1.17;0.63;;;;;;;29.58;28.29;98802.91;4888619;29;20040;-94
2022/08/01 12:41:40;;;;;;;;;;;;;;;;;;;;;
2022/08/01 12:44:23;;;;;;;0.90;0.70;;;;;;;29.43;27.70;98784.81;4894728;29;20110;-96
2022/08/01 12:47:17;;;;;;;1.10;0.70;;;;;;;29.44;27.49;98777.28;4877900;29;20126;-94
2022/08/01 12:49:44;;;;;;;8.10;0.93;;;;;;;29.54;27.88;98795.81;4907816;29;20463;-93
2022/08/01 12:52:21;;;;;;;1.15;0.80;;;;;;;29.43;28.24;98798.69;4904362;29;20024;-95
2022/08/01 12:55:39;;;;;;;2.28;0.70;;;;;;;29.65;28.13;98810.34;4879056;29;20032;-94
2022/08/01 12:58:16;;;;;;;1.05;0.80;;;;;;;29.42;28.13;98786.78;4907952;29;20044;-96
2022/08/01 13:04:58;;;;;;;2.65;0.98;;;;;;;29.44;28.79;98777.28;4893901;29;20051;-96
2022/08/01 13:07:49;;;;;;;1.85;0.70;;;;;;;29.64;28.46;98772.72;4926360;29;20031;-93
2022/08/01 13:10:48;;;;;;;;;;;;;;;;;;;;;
2022/08/01 13:13:47;;;;;;;1.60;0.80;;;;;;;29.67;27.93;98762.78;4843979;29;20137;-94
2022/08/01 13:17:24;;;;;;;;;;;;;;;;;;;;;
2022/08/01 13:20:43;;;;;;;;;;;;;;;;;;;;;
2022/08/01 13:23:41;;;;;;;2.05;0.90;;;;;;;29.86;28.27;98791.94;4843450;29;20101;-95
2022/08/01 13:26:16;;;;;;;2.42;0.80;;;;;;;29.97;27.54;98770.41;4853083;29;20057;-96
2022/08/01 13:29:06;;;;;;;1.05;0.68;;;;;;;29.95;27.30;98767.28;4802970;29;20103;-95
2022/08/01 13:31:40;;;;;;;1.67;0.80;;;;;;;30.14;26.47;98765.84;4869579;29;20044;-95
2022/08/01 13:34:20;;;;;;;0.98;0.80;;;;;;;30.76;26.80;98786.84;4892652;29;20044;-95